sensor_id;sensor_type;location;lat;lon;timestamp;temperature;humidity
68189;DHT22;66299;47.514;19.218;2023-03-01T00:02:26;3.53;76.17
68189;DHT22;66299;47.514;19.218;2023-03-01T00:04:57;3.52;76.22
68189;DHT22;66299;47.514;19.218;2023-03-01T00:07:28;3.56;76.06
68189;DHT22;66299;47.514;19.218;2023-03-01T00:10:03;3.54;76.31
68189;DHT22;66299;47.514;19.218;2023-03-01T00:12:35;3.54;76.59
68189;DHT22;66299;47.514;19.218;2023-03-01T00:15:08;3.53;76.85
68189;DHT22;66299;47.514;19.218;2023-03-01T00:17:38;3.53;76.49
68189;DHT22;66299;47.514;19.218;2023-03-01T00:20:13;3.56;76.41
68189;DHT22;66299;47.514;19.218;2023-03-01T00:22:46;3.56;76.53
68189;DHT22;66299;47.514;19.218;2023-03-01T00:25:15;3.60;76.71
68189;DHT22;66299;47.514;19.218;2023-03-01T00:27:43;3.59;76.53
68189;DHT22;66299;47.514;19.218;2023-03-01T00:30:17;3.60;76.21
68189;DHT22;66299;47.514;19.218;2023-03-01T00:32:48;3.59;75.90
68189;DHT22;66299;47.514;19.218;2023-03-01T00:35:17;3.64;75.99
68189;DHT22;66299;47.514;19.218;2023-03-01T00:37:48;3.62;75.94
68189;DHT22;66299;47.514;19.218;2023-03-01T00:40:25;3.69;76.22
68189;DHT22;66299;47.514;19.218;2023-03-01T00:42:55;3.67;76.46
68189;DHT22;66299;47.514;19.218;2023-03-01T00:45:28;3.66;76.08
68189;DHT22;66299;47.514;19.218;2023-03-01T00:47:59;3.66;76.12
68189;DHT22;66299;47.514;19.218;2023-03-01T00:50:27;3.69;75.92
68189;DHT22;66299;47.514;19.218;2023-03-01T00:52:58;3.67;77.94
68189;DHT22;66299;47.514;19.218;2023-03-01T00:55:26;3.64;76.56
68189;DHT22;66299;47.514;19.218;2023-03-01T00:57:58;3.64;76.04
68189;DHT22;66299;47.514;19.218;2023-03-01T01:00:29;3.66;75.58
68189;DHT22;66299;47.514;19.218;2023-03-01T01:02:59;3.62;76.30
68189;DHT22;66299;47.514;19.218;2023-03-01T01:05:29;3.63;76.18
68189;DHT22;66299;47.514;19.218;2023-03-01T01:08:01;3.64;76.15
68189;DHT22;66299;47.514;19.218;2023-03-01T01:10:30;3.70;76.09
68189;DHT22;66299;47.514;19.218;2023-03-01T01:13:04;3.74;76.09
68189;DHT22;66299;47.514;19.218;2023-03-01T01:15:40;3.66;75.97
68189;DHT22;66299;47.514;19.218;2023-03-01T01:18:10;3.59;76.36
68189;DHT22;66299;47.514;19.218;2023-03-01T01:20:41;3.62;76.33
68189;DHT22;66299;47.514;19.218;2023-03-01T01:23:09;3.62;76.29
68189;DHT22;66299;47.514;19.218;2023-03-01T01:25:40;3.57;76.41
68189;DHT22;66299;47.514;19.218;2023-03-01T01:28:09;3.56;76.92
68189;DHT22;66299;47.514;19.218;2023-03-01T01:30:43;3.54;76.62
68189;DHT22;66299;47.514;19.218;2023-03-01T01:33:13;3.56;76.40
68189;DHT22;66299;47.514;19.218;2023-03-01T01:35:44;3.59;76.80
68189;DHT22;66299;47.514;19.218;2023-03-01T01:38:19;3.57;76.97
68189;DHT22;66299;47.514;19.218;2023-03-01T01:40:49;3.56;77.09
68189;DHT22;66299;47.514;19.218;2023-03-01T01:43:20;3.59;76.61
68189;DHT22;66299;47.514;19.218;2023-03-01T01:45:51;3.60;76.39
68189;DHT22;66299;47.514;19.218;2023-03-01T01:48:24;3.57;76.54
68189;DHT22;66299;47.514;19.218;2023-03-01T01:51:10;3.59;76.84
68189;DHT22;66299;47.514;19.218;2023-03-01T01:53:42;3.62;76.72
68189;DHT22;66299;47.514;19.218;2023-03-01T01:56:14;3.59;76.49
68189;DHT22;66299;47.514;19.218;2023-03-01T01:58:44;3.62;76.06
68189;DHT22;66299;47.514;19.218;2023-03-01T02:01:17;3.63;76.57
68189;DHT22;66299;47.514;19.218;2023-03-01T02:03:48;3.60;76.76
68189;DHT22;66299;47.514;19.218;2023-03-01T02:06:20;3.60;76.90
68189;DHT22;66299;47.514;19.218;2023-03-01T02:08:53;3.60;76.81
68189;DHT22;66299;47.514;19.218;2023-03-01T02:11:26;3.59;77.00
68189;DHT22;66299;47.514;19.218;2023-03-01T02:13:56;3.56;76.83
68189;DHT22;66299;47.514;19.218;2023-03-01T02:16:28;3.53;76.90
68189;DHT22;66299;47.514;19.218;2023-03-01T02:19:01;3.50;77.50
68189;DHT22;66299;47.514;19.218;2023-03-01T02:21:38;3.50;77.78
68189;DHT22;66299;47.514;19.218;2023-03-01T02:24:17;3.50;77.67
68189;DHT22;66299;47.514;19.218;2023-03-01T02:26:51;3.47;78.04
68189;DHT22;66299;47.514;19.218;2023-03-01T02:29:26;3.50;77.56
68189;DHT22;66299;47.514;19.218;2023-03-01T02:32:02;3.36;78.90
68189;DHT22;66299;47.514;19.218;2023-03-01T02:34:33;3.43;79.06
68189;DHT22;66299;47.514;19.218;2023-03-01T02:37:06;3.43;79.41
68189;DHT22;66299;47.514;19.218;2023-03-01T02:39:43;3.39;79.19
68189;DHT22;66299;47.514;19.218;2023-03-01T02:42:18;3.35;80.02
68189;DHT22;66299;47.514;19.218;2023-03-01T02:44:55;3.32;80.27
68189;DHT22;66299;47.514;19.218;2023-03-01T02:47:24;3.30;79.92
68189;DHT22;66299;47.514;19.218;2023-03-01T02:49:59;3.27;80.06
68189;DHT22;66299;47.514;19.218;2023-03-01T02:52:42;3.26;80.24
68189;DHT22;66299;47.514;19.218;2023-03-01T02:55:14;3.23;80.29
68189;DHT22;66299;47.514;19.218;2023-03-01T02:57:45;3.19;80.61
68189;DHT22;66299;47.514;19.218;2023-03-01T03:00:21;3.18;80.45
68189;DHT22;66299;47.514;19.218;2023-03-01T03:02:54;3.20;81.71
68189;DHT22;66299;47.514;19.218;2023-03-01T03:05:29;3.16;80.62
68189;DHT22;66299;47.514;19.218;2023-03-01T03:08:02;3.16;80.56
68189;DHT22;66299;47.514;19.218;2023-03-01T03:10:34;3.23;79.26
68189;DHT22;66299;47.514;19.218;2023-03-01T03:13:05;3.26;79.21
68189;DHT22;66299;47.514;19.218;2023-03-01T03:15:35;3.29;79.02
68189;DHT22;66299;47.514;19.218;2023-03-01T03:18:08;3.27;79.10
68189;DHT22;66299;47.514;19.218;2023-03-01T03:20:45;3.29;79.29
68189;DHT22;66299;47.514;19.218;2023-03-01T03:23:16;3.30;79.88
68189;DHT22;66299;47.514;19.218;2023-03-01T03:25:45;3.30;79.78
68189;DHT22;66299;47.514;19.218;2023-03-01T03:28:16;3.27;79.52
68189;DHT22;66299;47.514;19.218;2023-03-01T03:30:49;3.30;79.66
68189;DHT22;66299;47.514;19.218;2023-03-01T03:33:18;3.35;81.13
68189;DHT22;66299;47.514;19.218;2023-03-01T03:35:49;3.30;79.08
68189;DHT22;66299;47.514;19.218;2023-03-01T03:38:20;3.30;79.22
68189;DHT22;66299;47.514;19.218;2023-03-01T03:40:51;3.37;80.57
68189;DHT22;66299;47.514;19.218;2023-03-01T03:43:21;3.35;79.66
68189;DHT22;66299;47.514;19.218;2023-03-01T03:45:51;3.36;81.35
68189;DHT22;66299;47.514;19.218;2023-03-01T03:48:24;3.29;80.69
68189;DHT22;66299;47.514;19.218;2023-03-01T03:50:53;3.32;80.05
68189;DHT22;66299;47.514;19.218;2023-03-01T03:53:25;3.33;80.42
68189;DHT22;66299;47.514;19.218;2023-03-01T03:55:56;3.27;79.79
68189;DHT22;66299;47.514;19.218;2023-03-01T03:58:27;3.29;80.10
68189;DHT22;66299;47.514;19.218;2023-03-01T04:00:59;3.32;80.13
68189;DHT22;66299;47.514;19.218;2023-03-01T04:03:32;3.27;80.44
68189;DHT22;66299;47.514;19.218;2023-03-01T04:06:03;3.29;80.72
68189;DHT22;66299;47.514;19.218;2023-03-01T04:08:34;3.29;80.89
68189;DHT22;66299;47.514;19.218;2023-03-01T04:11:05;3.32;80.69
68189;DHT22;66299;47.514;19.218;2023-03-01T04:13:47;3.35;80.26
68189;DHT22;66299;47.514;19.218;2023-03-01T04:16:19;3.26;80.51
68189;DHT22;66299;47.514;19.218;2023-03-01T04:18:49;3.25;80.87
68189;DHT22;66299;47.514;19.218;2023-03-01T04:21:23;3.23;80.94
68189;DHT22;66299;47.514;19.218;2023-03-01T04:23:58;3.26;81.10
68189;DHT22;66299;47.514;19.218;2023-03-01T04:26:26;3.27;81.01
68189;DHT22;66299;47.514;19.218;2023-03-01T04:28:56;3.26;81.12
68189;DHT22;66299;47.514;19.218;2023-03-01T04:31:31;3.29;80.54
68189;DHT22;66299;47.514;19.218;2023-03-01T04:34:07;3.27;80.95
68189;DHT22;66299;47.514;19.218;2023-03-01T04:36:36;3.27;80.72
68189;DHT22;66299;47.514;19.218;2023-03-01T04:39:09;3.27;80.47
68189;DHT22;66299;47.514;19.218;2023-03-01T04:41:40;3.29;80.43
68189;DHT22;66299;47.514;19.218;2023-03-01T04:44:14;3.37;80.18
68189;DHT22;66299;47.514;19.218;2023-03-01T04:46:48;3.33;80.77
68189;DHT22;66299;47.514;19.218;2023-03-01T04:49:19;3.30;79.90
68189;DHT22;66299;47.514;19.218;2023-03-01T04:51:47;3.30;80.13
68189;DHT22;66299;47.514;19.218;2023-03-01T04:54:17;3.29;80.25
68189;DHT22;66299;47.514;19.218;2023-03-01T04:56:46;3.27;80.15
68189;DHT22;66299;47.514;19.218;2023-03-01T04:59:16;3.29;80.04
68189;DHT22;66299;47.514;19.218;2023-03-01T05:01:52;3.33;79.71
68189;DHT22;66299;47.514;19.218;2023-03-01T05:04:26;3.23;80.28
68189;DHT22;66299;47.514;19.218;2023-03-01T05:07:02;3.29;80.40
68189;DHT22;66299;47.514;19.218;2023-03-01T05:09:31;3.23;80.52
68189;DHT22;66299;47.514;19.218;2023-03-01T05:12:00;3.23;80.65
68189;DHT22;66299;47.514;19.218;2023-03-01T05:14:35;3.25;80.54
68189;DHT22;66299;47.514;19.218;2023-03-01T05:17:08;3.29;80.58
68189;DHT22;66299;47.514;19.218;2023-03-01T05:19:37;3.25;80.63
68189;DHT22;66299;47.514;19.218;2023-03-01T05:22:10;3.25;80.87
68189;DHT22;66299;47.514;19.218;2023-03-01T05:24:40;3.27;81.09
68189;DHT22;66299;47.514;19.218;2023-03-01T05:27:09;3.29;81.13
68189;DHT22;66299;47.514;19.218;2023-03-01T05:29:41;3.27;81.47
68189;DHT22;66299;47.514;19.218;2023-03-01T05:32:13;3.30;81.55
68189;DHT22;66299;47.514;19.218;2023-03-01T05:34:43;3.33;81.32
68189;DHT22;66299;47.514;19.218;2023-03-01T05:37:17;3.35;80.82
68189;DHT22;66299;47.514;19.218;2023-03-01T05:39:48;3.33;80.97
68189;DHT22;66299;47.514;19.218;2023-03-01T05:42:18;3.37;81.11
68189;DHT22;66299;47.514;19.218;2023-03-01T05:44:46;3.36;81.44
68189;DHT22;66299;47.514;19.218;2023-03-01T05:47:20;3.33;81.37
68189;DHT22;66299;47.514;19.218;2023-03-01T05:49:50;3.35;81.39
68189;DHT22;66299;47.514;19.218;2023-03-01T05:52:18;3.37;81.23
68189;DHT22;66299;47.514;19.218;2023-03-01T05:54:47;3.39;81.29
68189;DHT22;66299;47.514;19.218;2023-03-01T05:57:19;3.39;81.44
68189;DHT22;66299;47.514;19.218;2023-03-01T05:59:48;3.39;81.23
68189;DHT22;66299;47.514;19.218;2023-03-01T06:02:20;3.46;81.19
68189;DHT22;66299;47.514;19.218;2023-03-01T06:04:51;3.53;81.19
68189;DHT22;66299;47.514;19.218;2023-03-01T06:07:19;3.54;81.20
68189;DHT22;66299;47.514;19.218;2023-03-01T06:09:48;3.50;80.72
68189;DHT22;66299;47.514;19.218;2023-03-01T06:12:16;3.54;80.78
68189;DHT22;66299;47.514;19.218;2023-03-01T06:14:47;3.57;80.58
68189;DHT22;66299;47.514;19.218;2023-03-01T06:17:15;3.59;80.86
68189;DHT22;66299;47.514;19.218;2023-03-01T06:19:50;3.62;80.69
68189;DHT22;66299;47.514;19.218;2023-03-01T06:22:20;3.63;81.00
68189;DHT22;66299;47.514;19.218;2023-03-01T06:24:52;3.62;81.11
68189;DHT22;66299;47.514;19.218;2023-03-01T06:27:27;3.64;80.66
68189;DHT22;66299;47.514;19.218;2023-03-01T06:29:59;3.67;80.93
68189;DHT22;66299;47.514;19.218;2023-03-01T06:32:33;3.70;80.44
68189;DHT22;66299;47.514;19.218;2023-03-01T06:35:08;3.67;80.50
68189;DHT22;66299;47.514;19.218;2023-03-01T06:37:43;3.66;79.92
68189;DHT22;66299;47.514;19.218;2023-03-01T06:40:14;3.74;80.13
68189;DHT22;66299;47.514;19.218;2023-03-01T06:42:47;3.83;79.76
68189;DHT22;66299;47.514;19.218;2023-03-01T06:45:17;3.99;79.73
68189;DHT22;66299;47.514;19.218;2023-03-01T06:47:46;3.91;79.27
68189;DHT22;66299;47.514;19.218;2023-03-01T06:50:17;3.94;79.32
68189;DHT22;66299;47.514;19.218;2023-03-01T06:52:47;3.94;78.51
68189;DHT22;66299;47.514;19.218;2023-03-01T06:55:16;3.90;78.44
68189;DHT22;66299;47.514;19.218;2023-03-01T06:57:45;4.04;78.10
68189;DHT22;66299;47.514;19.218;2023-03-01T07:00:16;4.08;78.59
68189;DHT22;66299;47.514;19.218;2023-03-01T07:02:47;4.11;78.23
68189;DHT22;66299;47.514;19.218;2023-03-01T07:05:18;4.26;78.07
68189;DHT22;66299;47.514;19.218;2023-03-01T07:07:47;4.33;77.80
68189;DHT22;66299;47.514;19.218;2023-03-01T07:10:18;4.33;77.72
68189;DHT22;66299;47.514;19.218;2023-03-01T07:12:50;4.42;77.43
68189;DHT22;66299;47.514;19.218;2023-03-01T07:15:25;4.48;77.16
68189;DHT22;66299;47.514;19.218;2023-03-01T07:17:56;4.49;77.31
68189;DHT22;66299;47.514;19.218;2023-03-01T07:20:26;4.59;76.72
68189;DHT22;66299;47.514;19.218;2023-03-01T07:22:57;4.63;76.67
68189;DHT22;66299;47.514;19.218;2023-03-01T07:25:27;4.62;76.49
68189;DHT22;66299;47.514;19.218;2023-03-01T07:27:57;4.73;76.04
68189;DHT22;66299;47.514;19.218;2023-03-01T07:30:30;4.69;76.09
68189;DHT22;66299;47.514;19.218;2023-03-01T07:32:59;4.59;75.61
68189;DHT22;66299;47.514;19.218;2023-03-01T07:35:31;4.77;75.56
68189;DHT22;66299;47.514;19.218;2023-03-01T07:38:09;4.70;75.44
68189;DHT22;66299;47.514;19.218;2023-03-01T07:40:39;4.92;75.02
68189;DHT22;66299;47.514;19.218;2023-03-01T07:43:08;4.90;74.83
68189;DHT22;66299;47.514;19.218;2023-03-01T07:45:37;4.91;74.59
68189;DHT22;66299;47.514;19.218;2023-03-01T07:48:08;5.01;74.22
68189;DHT22;66299;47.514;19.218;2023-03-01T07:50:38;4.98;73.59
68189;DHT22;66299;47.514;19.218;2023-03-01T07:53:10;5.15;74.16
68189;DHT22;66299;47.514;19.218;2023-03-01T07:55:38;5.31;73.48
68189;DHT22;66299;47.514;19.218;2023-03-01T07:58:10;5.27;71.99
68189;DHT22;66299;47.514;19.218;2023-03-01T08:00:41;5.69;72.51
68189;DHT22;66299;47.514;19.218;2023-03-01T08:03:12;5.60;70.90
68189;DHT22;66299;47.514;19.218;2023-03-01T08:05:43;5.73;70.37
68189;DHT22;66299;47.514;19.218;2023-03-01T08:08:14;5.96;70.07
68189;DHT22;66299;47.514;19.218;2023-03-01T08:10:45;6.25;70.45
68189;DHT22;66299;47.514;19.218;2023-03-01T08:13:15;5.96;68.97
68189;DHT22;66299;47.514;19.218;2023-03-01T08:15:49;6.01;68.48
68189;DHT22;66299;47.514;19.218;2023-03-01T08:18:19;5.80;69.05
68189;DHT22;66299;47.514;19.218;2023-03-01T08:20:50;6.06;69.20
68189;DHT22;66299;47.514;19.218;2023-03-01T08:23:19;6.73;69.56
68189;DHT22;66299;47.514;19.218;2023-03-01T08:25:48;6.86;67.78
68189;DHT22;66299;47.514;19.218;2023-03-01T08:28:17;7.03;67.84
68189;DHT22;66299;47.514;19.218;2023-03-01T08:30:45;6.97;67.00
68189;DHT22;66299;47.514;19.218;2023-03-01T08:33:14;6.77;67.33
68189;DHT22;66299;47.514;19.218;2023-03-01T08:35:45;6.71;67.88
68189;DHT22;66299;47.514;19.218;2023-03-01T08:38:16;6.71;67.37
68189;DHT22;66299;47.514;19.218;2023-03-01T08:40:44;6.39;68.87
68189;DHT22;66299;47.514;19.218;2023-03-01T08:43:13;6.66;68.29
68189;DHT22;66299;47.514;19.218;2023-03-01T08:45:41;6.87;68.38
68189;DHT22;66299;47.514;19.218;2023-03-01T08:48:10;6.62;68.04
68189;DHT22;66299;47.514;19.218;2023-03-01T08:50:39;6.69;68.24
68189;DHT22;66299;47.514;19.218;2023-03-01T08:53:09;6.93;67.48
68189;DHT22;66299;47.514;19.218;2023-03-01T08:55:40;6.68;67.40
68189;DHT22;66299;47.514;19.218;2023-03-01T08:58:10;6.62;67.53
68189;DHT22;66299;47.514;19.218;2023-03-01T09:00:40;6.99;67.71
68189;DHT22;66299;47.514;19.218;2023-03-01T09:03:09;7.24;67.42
68189;DHT22;66299;47.514;19.218;2023-03-01T09:05:39;7.59;66.78
68189;DHT22;66299;47.514;19.218;2023-03-01T09:08:08;7.72;65.74
68189;DHT22;66299;47.514;19.218;2023-03-01T09:10:38;7.44;66.22
68189;DHT22;66299;47.514;19.218;2023-03-01T09:13:09;7.75;66.09
68189;DHT22;66299;47.514;19.218;2023-03-01T09:15:38;8.24;65.32
68189;DHT22;66299;47.514;19.218;2023-03-01T09:18:07;7.86;65.80
68189;DHT22;66299;47.514;19.218;2023-03-01T09:20:36;8.04;65.23
68189;DHT22;66299;47.514;19.218;2023-03-01T09:23:05;8.00;65.06
68189;DHT22;66299;47.514;19.218;2023-03-01T09:25:37;8.00;65.06
68189;DHT22;66299;47.514;19.218;2023-03-01T09:28:07;8.13;65.53
68189;DHT22;66299;47.514;19.218;2023-03-01T09:31:00;7.99;63.56
68189;DHT22;66299;47.514;19.218;2023-03-01T09:33:29;8.26;64.73
68189;DHT22;66299;47.514;19.218;2023-03-01T09:35:58;8.80;63.74
68189;DHT22;66299;47.514;19.218;2023-03-01T09:38:27;8.23;62.95
68189;DHT22;66299;47.514;19.218;2023-03-01T09:40:56;8.21;62.79
68189;DHT22;66299;47.514;19.218;2023-03-01T09:43:31;8.45;62.90
68189;DHT22;66299;47.514;19.218;2023-03-01T09:46:08;8.04;62.78
68189;DHT22;66299;47.514;19.218;2023-03-01T09:48:41;8.24;62.71
68189;DHT22;66299;47.514;19.218;2023-03-01T09:51:16;8.59;62.86
68189;DHT22;66299;47.514;19.218;2023-03-01T09:53:46;8.89;62.21
68189;DHT22;66299;47.514;19.218;2023-03-01T09:56:19;9.06;60.56
68189;DHT22;66299;47.514;19.218;2023-03-01T09:58:52;8.09;61.15
68189;DHT22;66299;47.514;19.218;2023-03-01T10:01:33;8.67;61.29
68189;DHT22;66299;47.514;19.218;2023-03-01T10:04:17;8.90;60.79
68189;DHT22;66299;47.514;19.218;2023-03-01T10:07:02;9.09;60.71
68189;DHT22;66299;47.514;19.218;2023-03-01T10:09:37;9.67;60.92
68189;DHT22;66299;47.514;19.218;2023-03-01T10:12:09;10.01;59.72
68189;DHT22;66299;47.514;19.218;2023-03-01T10:14:42;9.62;59.63
68189;DHT22;66299;47.514;19.218;2023-03-01T10:17:24;9.58;60.82
68189;DHT22;66299;47.514;19.218;2023-03-01T10:19:57;10.09;59.66
68189;DHT22;66299;47.514;19.218;2023-03-01T10:22:40;9.84;58.95
68189;DHT22;66299;47.514;19.218;2023-03-01T10:25:13;9.10;59.97
68189;DHT22;66299;47.514;19.218;2023-03-01T10:27:51;9.55;60.71
68189;DHT22;66299;47.514;19.218;2023-03-01T10:30:21;9.84;60.24
68189;DHT22;66299;47.514;19.218;2023-03-01T10:32:54;9.36;60.19
68189;DHT22;66299;47.514;19.218;2023-03-01T10:35:27;9.17;60.78
68189;DHT22;66299;47.514;19.218;2023-03-01T10:37:57;9.50;61.00
68189;DHT22;66299;47.514;19.218;2023-03-01T10:40:28;10.15;60.53
68189;DHT22;66299;47.514;19.218;2023-03-01T10:42:58;10.13;59.19
68189;DHT22;66299;47.514;19.218;2023-03-01T10:45:34;10.03;61.46
68189;DHT22;66299;47.514;19.218;2023-03-01T10:48:12;9.68;60.39
68189;DHT22;66299;47.514;19.218;2023-03-01T10:50:44;9.52;60.67
68189;DHT22;66299;47.514;19.218;2023-03-01T10:53:24;10.10;60.52
68189;DHT22;66299;47.514;19.218;2023-03-01T10:56:01;10.08;59.29
68189;DHT22;66299;47.514;19.218;2023-03-01T10:58:30;9.88;59.33
68189;DHT22;66299;47.514;19.218;2023-03-01T11:01:00;9.77;59.81
68189;DHT22;66299;47.514;19.218;2023-03-01T11:03:32;10.47;59.85
68189;DHT22;66299;47.514;19.218;2023-03-01T11:06:06;10.33;59.00
68189;DHT22;66299;47.514;19.218;2023-03-01T11:08:49;9.78;59.69
68189;DHT22;66299;47.514;19.218;2023-03-01T11:11:26;9.91;60.00
68189;DHT22;66299;47.514;19.218;2023-03-01T11:14:00;10.46;59.51
68189;DHT22;66299;47.514;19.218;2023-03-01T11:16:58;10.75;58.46
68189;DHT22;66299;47.514;19.218;2023-03-01T11:19:30;10.43;58.77
68189;DHT22;66299;47.514;19.218;2023-03-01T11:22:02;10.02;59.35
68189;DHT22;66299;47.514;19.218;2023-03-01T11:24:33;10.34;59.94
68189;DHT22;66299;47.514;19.218;2023-03-01T11:27:13;10.47;59.27
68189;DHT22;66299;47.514;19.218;2023-03-01T11:29:45;10.50;59.96
68189;DHT22;66299;47.514;19.218;2023-03-01T11:32:19;10.13;60.08
68189;DHT22;66299;47.514;19.218;2023-03-01T11:34:54;10.26;59.66
68189;DHT22;66299;47.514;19.218;2023-03-01T11:37:34;9.91;59.91
68189;DHT22;66299;47.514;19.218;2023-03-01T11:40:17;10.80;59.05
68189;DHT22;66299;47.514;19.218;2023-03-01T11:43:02;11.26;57.79
68189;DHT22;66299;47.514;19.218;2023-03-01T11:45:44;10.67;57.52
68189;DHT22;66299;47.514;19.218;2023-03-01T11:48:31;10.67;57.26
68189;DHT22;66299;47.514;19.218;2023-03-01T11:51:22;10.64;58.37
68189;DHT22;66299;47.514;19.218;2023-03-01T11:54:04;10.36;57.70
68189;DHT22;66299;47.514;19.218;2023-03-01T11:56:39;11.14;58.67
68189;DHT22;66299;47.514;19.218;2023-03-01T11:59:25;11.32;55.87
68189;DHT22;66299;47.514;19.218;2023-03-01T12:02:11;10.40;57.21
68189;DHT22;66299;47.514;19.218;2023-03-01T12:05:06;10.95;56.90
68189;DHT22;66299;47.514;19.218;2023-03-01T12:07:48;11.46;57.20
68189;DHT22;66299;47.514;19.218;2023-03-01T12:10:27;11.28;56.46
68189;DHT22;66299;47.514;19.218;2023-03-01T12:13:17;11.78;56.62
68189;DHT22;66299;47.514;19.218;2023-03-01T12:16:02;11.66;56.12
68189;DHT22;66299;47.514;19.218;2023-03-01T12:18:47;11.73;55.39
68189;DHT22;66299;47.514;19.218;2023-03-01T12:21:30;11.57;57.41
68189;DHT22;66299;47.514;19.218;2023-03-01T12:24:21;11.35;57.17
68189;DHT22;66299;47.514;19.218;2023-03-01T12:27:02;11.63;57.44
68189;DHT22;66299;47.514;19.218;2023-03-01T12:29:41;11.65;58.27
68189;DHT22;66299;47.514;19.218;2023-03-01T12:32:30;11.36;56.41
68189;DHT22;66299;47.514;19.218;2023-03-01T12:35:33;12.10;57.59
68189;DHT22;66299;47.514;19.218;2023-03-01T12:38:13;11.47;55.86
68189;DHT22;66299;47.514;19.218;2023-03-01T12:41:10;11.18;56.71
68189;DHT22;66299;47.514;19.218;2023-03-01T12:43:54;11.32;57.91
68189;DHT22;66299;47.514;19.218;2023-03-01T12:46:37;11.32;56.79
68189;DHT22;66299;47.514;19.218;2023-03-01T12:49:12;11.50;58.50
68189;DHT22;66299;47.514;19.218;2023-03-01T12:51:44;11.65;56.73
68189;DHT22;66299;47.514;19.218;2023-03-01T12:54:23;11.30;56.94
68189;DHT22;66299;47.514;19.218;2023-03-01T12:56:55;11.63;57.02
68189;DHT22;66299;47.514;19.218;2023-03-01T12:59:31;12.04;56.78
68189;DHT22;66299;47.514;19.218;2023-03-01T13:02:05;11.29;57.74
68189;DHT22;66299;47.514;19.218;2023-03-01T13:04:50;11.88;57.22
68189;DHT22;66299;47.514;19.218;2023-03-01T13:07:30;12.57;55.81
68189;DHT22;66299;47.514;19.218;2023-03-01T13:10:19;13.02;55.21
68189;DHT22;66299;47.514;19.218;2023-03-01T13:13:02;12.63;54.38
68189;DHT22;66299;47.514;19.218;2023-03-01T13:15:34;12.26;55.78
68189;DHT22;66299;47.514;19.218;2023-03-01T13:18:30;12.45;55.60
68189;DHT22;66299;47.514;19.218;2023-03-01T13:21:05;12.38;56.02
68189;DHT22;66299;47.514;19.218;2023-03-01T13:23:36;13.07;55.05
68189;DHT22;66299;47.514;19.218;2023-03-01T13:26:14;12.67;55.72
68189;DHT22;66299;47.514;19.218;2023-03-01T13:28:55;12.82;55.74
68189;DHT22;66299;47.514;19.218;2023-03-01T13:31:58;12.84;55.61
68189;DHT22;66299;47.514;19.218;2023-03-01T13:34:54;12.14;56.76
68189;DHT22;66299;47.514;19.218;2023-03-01T13:37:29;11.77;58.67
68189;DHT22;66299;47.514;19.218;2023-03-01T13:42:49;11.60;58.70
68189;DHT22;66299;47.514;19.218;2023-03-01T13:45:36;11.46;58.50
68189;DHT22;66299;47.514;19.218;2023-03-01T13:48:11;11.53;58.77
68189;DHT22;66299;47.514;19.218;2023-03-01T13:50:45;11.16;58.60
68189;DHT22;66299;47.514;19.218;2023-03-01T13:53:17;11.22;59.13
68189;DHT22;66299;47.514;19.218;2023-03-01T13:55:48;11.43;58.86
68189;DHT22;66299;47.514;19.218;2023-03-01T13:58:22;11.18;58.45
68189;DHT22;66299;47.514;19.218;2023-03-01T14:00:58;11.39;59.59
68189;DHT22;66299;47.514;19.218;2023-03-01T14:03:29;11.39;59.01
68189;DHT22;66299;47.514;19.218;2023-03-01T14:06:01;11.26;59.35
68189;DHT22;66299;47.514;19.218;2023-03-01T14:08:42;11.14;59.21
68189;DHT22;66299;47.514;19.218;2023-03-01T14:11:43;11.33;59.29
68189;DHT22;66299;47.514;19.218;2023-03-01T14:14:44;11.23;59.37
68189;DHT22;66299;47.514;19.218;2023-03-01T14:17:38;11.12;58.98
68189;DHT22;66299;47.514;19.218;2023-03-01T14:20:17;11.18;59.18
68189;DHT22;66299;47.514;19.218;2023-03-01T14:22:49;11.22;59.25
68189;DHT22;66299;47.514;19.218;2023-03-01T14:25:21;11.14;59.46
68189;DHT22;66299;47.514;19.218;2023-03-01T14:27:55;11.07;59.42
68189;DHT22;66299;47.514;19.218;2023-03-01T14:30:34;11.15;58.97
68189;DHT22;66299;47.514;19.218;2023-03-01T14:33:18;11.02;60.28
68189;DHT22;66299;47.514;19.218;2023-03-01T14:35:58;10.95;60.40
68189;DHT22;66299;47.514;19.218;2023-03-01T14:38:33;10.88;59.43
68189;DHT22;66299;47.514;19.218;2023-03-01T14:41:05;11.05;59.87
68189;DHT22;66299;47.514;19.218;2023-03-01T14:43:35;10.95;60.54
68189;DHT22;66299;47.514;19.218;2023-03-01T14:46:18;11.01;60.07
68189;DHT22;66299;47.514;19.218;2023-03-01T14:48:50;11.01;60.29
68189;DHT22;66299;47.514;19.218;2023-03-01T14:51:19;10.92;59.79
68189;DHT22;66299;47.514;19.218;2023-03-01T14:53:49;10.94;58.96
68189;DHT22;66299;47.514;19.218;2023-03-01T14:56:18;10.75;59.41
68189;DHT22;66299;47.514;19.218;2023-03-01T14:58:51;10.81;59.88
68189;DHT22;66299;47.514;19.218;2023-03-01T15:01:21;10.82;60.60
68189;DHT22;66299;47.514;19.218;2023-03-01T15:03:52;10.77;61.04
68189;DHT22;66299;47.514;19.218;2023-03-01T15:06:23;10.77;60.32
68189;DHT22;66299;47.514;19.218;2023-03-01T15:08:53;10.65;61.57
68189;DHT22;66299;47.514;19.218;2023-03-01T15:11:27;10.70;60.97
68189;DHT22;66299;47.514;19.218;2023-03-01T15:13:57;10.60;61.35
68189;DHT22;66299;47.514;19.218;2023-03-01T15:16:27;10.49;61.30
68189;DHT22;66299;47.514;19.218;2023-03-01T15:19:02;10.46;61.05
68189;DHT22;66299;47.514;19.218;2023-03-01T15:21:33;10.46;61.70
68189;DHT22;66299;47.514;19.218;2023-03-01T15:24:06;10.40;60.90
68189;DHT22;66299;47.514;19.218;2023-03-01T15:26:41;10.32;61.61
68189;DHT22;66299;47.514;19.218;2023-03-01T15:29:14;10.25;61.57
68189;DHT22;66299;47.514;19.218;2023-03-01T15:31:54;10.28;61.34
68189;DHT22;66299;47.514;19.218;2023-03-01T15:34:31;10.17;62.50
68189;DHT22;66299;47.514;19.218;2023-03-01T15:37:37;10.12;62.43
68189;DHT22;66299;47.514;19.218;2023-03-01T15:40:18;9.95;63.11
68189;DHT22;66299;47.514;19.218;2023-03-01T15:42:48;9.86;63.09
68189;DHT22;66299;47.514;19.218;2023-03-01T15:45:22;9.81;63.02
68189;DHT22;66299;47.514;19.218;2023-03-01T15:47:54;9.73;64.04
68189;DHT22;66299;47.514;19.218;2023-03-01T15:50:27;9.65;63.79
68189;DHT22;66299;47.514;19.218;2023-03-01T15:52:58;9.59;63.85
68189;DHT22;66299;47.514;19.218;2023-03-01T15:55:30;9.50;64.79
68189;DHT22;66299;47.514;19.218;2023-03-01T15:58:02;9.34;65.01
68189;DHT22;66299;47.514;19.218;2023-03-01T16:00:33;9.26;65.17
68189;DHT22;66299;47.514;19.218;2023-03-01T16:03:03;9.13;65.64
68189;DHT22;66299;47.514;19.218;2023-03-01T16:05:33;9.09;65.71
68189;DHT22;66299;47.514;19.218;2023-03-01T16:08:05;9.10;65.70
68189;DHT22;66299;47.514;19.218;2023-03-01T16:10:36;8.93;66.25
68189;DHT22;66299;47.514;19.218;2023-03-01T16:13:05;8.85;66.31